Time;durP1;ratioP1;P1;durP2;ratioP2;P2;SDS_P1;SDS_P2;PMS_P1;PMS_P2;Temp;Humidity;BMP_temperature;BMP_pressure;BME280_temperature;BME280_humidity;BME280_pressure;Samples;Min_cycle;Max_cycle;Signal;HPM_P1;HPM_P2
2023/12/30 00:01:13;;;;;;;56.85;32.10;;;9.00;76.40;;;;;;5056954;28;20048;-63
2023/12/30 00:03:39;;;;;;;58.40;33.13;;;9.00;76.40;;;;;;5056620;28;20017;-65
2023/12/30 00:06:07;;;;;;;56.65;32.20;;;9.00;76.30;;;;;;5055810;28;20021;-64
2023/12/30 00:08:33;;;;;;;53.72;31.63;;;9.00;76.40;;;;;;5055587;28;20033;-64
2023/12/30 00:10:59;;;;;;;54.20;30.90;;;9.00;76.40;;;;;;5056843;28;20024;-65
2023/12/30 00:13:25;;;;;;;58.47;32.72;;;9.00;76.40;;;;;;5056429;28;20032;-65
2023/12/30 00:15:52;;;;;;;56.20;32.55;;;9.00;76.40;;;;;;5056466;28;20071;-64
2023/12/30 00:18:18;;;;;;;55.35;31.88;;;9.00;76.40;;;;;;5056355;28;20529;-64
2023/12/30 00:20:45;;;;;;;57.72;32.63;;;9.00;76.50;;;;;;5056354;28;20049;-64
2023/12/30 00:23:13;;;;;;;60.05;31.00;;;9.00;76.50;;;;;;5056190;28;20450;-64
2023/12/30 00:25:39;;;;;;;58.47;31.63;;;9.00;76.40;;;;;;5056216;28;20024;-65
2023/12/30 00:28:05;;;;;;;61.33;35.72;;;9.10;76.40;;;;;;5056220;28;20434;-64
2023/12/30 00:30:31;;;;;;;56.20;30.40;;;9.10;76.40;;;;;;5056121;28;20046;-64
2023/12/30 00:32:58;;;;;;;50.10;30.05;;;9.10;76.50;;;;;;5055915;28;20037;-64
2023/12/30 00:35:24;;;;;;;54.40;31.35;;;9.10;76.40;;;;;;5056683;28;20146;-65
2023/12/30 00:37:52;;;;;;;57.42;32.47;;;9.10;76.40;;;;;;5056342;28;20025;-65
2023/12/30 00:40:18;;;;;;;56.28;32.65;;;9.00;76.40;;;;;;5056049;28;20044;-64
2023/12/30 00:42:44;;;;;;;56.63;32.13;;;9.10;76.40;;;;;;5055802;28;20064;-64
2023/12/30 00:45:10;;;;;;;59.45;33.63;;;9.00;76.40;;;;;;5056216;28;20025;-65
2023/12/30 00:47:36;;;;;;;57.33;31.83;;;9.00;76.50;;;;;;5056170;28;20028;-64
2023/12/30 00:50:02;;;;;;;52.10;32.45;;;9.00;76.50;;;;;;5056261;28;20033;-64
2023/12/30 00:52:28;;;;;;;57.33;32.38;;;9.00;76.50;;;;;;5055766;28;20104;-64
2023/12/30 00:54:54;;;;;;;51.60;31.38;;;9.00;76.50;;;;;;5056069;28;20021;-64
2023/12/30 00:57:21;;;;;;;57.15;33.03;;;9.00;76.50;;;;;;5055624;28;20378;-64
2023/12/30 00:59:47;;;;;;;63.83;34.13;;;9.00;76.60;;;;;;5056154;28;20099;-64
2023/12/30 01:02:13;;;;;;;63.80;36.22;;;9.00;76.60;;;;;;5056119;28;20059;-64
2023/12/30 01:04:39;;;;;;;64.15;34.35;;;9.00;76.60;;;;;;5055643;28;20353;-64
2023/12/30 01:07:05;;;;;;;61.53;33.03;;;9.00;76.70;;;;;;5055539;28;20030;-65
2023/12/30 01:09:31;;;;;;;61.45;34.00;;;9.00;76.60;;;;;;5055579;28;20100;-65
2023/12/30 01:11:57;;;;;;;59.90;34.38;;;9.00;76.60;;;;;;5055783;28;20025;-64
2023/12/30 01:14:23;;;;;;;58.13;33.78;;;9.00;76.70;;;;;;5055482;28;20087;-64
2023/12/30 01:16:49;;;;;;;61.92;35.20;;;8.90;76.70;;;;;;5055314;28;20025;-65
2023/12/30 01:19:15;;;;;;;56.30;33.20;;;8.90;76.70;;;;;;5055662;28;20017;-64
2023/12/30 01:21:41;;;;;;;50.42;30.35;;;8.90;76.80;;;;;;5055538;28;20044;-64
2023/12/30 01:24:07;;;;;;;62.55;36.53;;;8.90;76.80;;;;;;5055572;28;20044;-65
2023/12/30 01:26:33;;;;;;;59.65;35.53;;;9.00;76.90;;;;;;5055826;28;20110;-64
2023/12/30 01:28:59;;;;;;;60.65;33.63;;;8.90;76.90;;;;;;5055282;28;20021;-64
2023/12/30 01:31:25;;;;;;;63.47;36.42;;;8.90;76.90;;;;;;5055099;28;20040;-64
2023/12/30 01:33:50;;;;;;;61.33;33.75;;;8.90;77.00;;;;;;5055680;28;20021;-64
2023/12/30 01:36:17;;;;;;;53.72;31.73;;;8.90;77.00;;;;;;5055448;28;20024;-64
2023/12/30 01:38:43;;;;;;;61.78;33.75;;;8.90;77.00;;;;;;5055425;28;20028;-65
2023/12/30 01:41:09;;;;;;;65.07;34.97;;;8.90;77.10;;;;;;5055685;28;20035;-64
2023/12/30 01:43:34;;;;;;;62.97;34.60;;;8.90;77.00;;;;;;5054870;28;20458;-64
2023/12/30 01:46:03;;;;;;;62.13;34.95;;;8.90;76.90;;;;;;5055008;28;20108;-65
2023/12/30 01:48:30;;;;;;;52.28;30.05;;;8.90;76.90;;;;;;5055621;28;20032;-65
2023/12/30 01:50:58;;;;;;;59.63;32.30;;;8.90;76.90;;;;;;5055073;28;20334;-64
2023/12/30 01:53:26;;;;;;;56.40;33.17;;;8.90;76.90;;;;;;5055121;28;20449;-65
2023/12/30 01:55:53;;;;;;;56.83;32.35;;;8.90;76.90;;;;;;5055551;28;20025;-64
2023/12/30 01:58:20;;;;;;;64.35;34.58;;;8.90;76.90;;;;;;5053960;28;20021;-65
2023/12/30 02:00:54;;;;;;;61.63;34.30;;;8.80;77.00;;;;;;5055188;28;20047;-65
2023/12/30 02:03:22;;;;;;;;;;;8.80;77.00;;;;;;5055604;28;20358;-65
2023/12/30 02:05:48;;;;;;;58.63;31.58;;;8.80;77.00;;;;;;5055194;28;19944;-65
2023/12/30 02:08:15;;;;;;;54.28;31.45;;;8.80;76.90;;;;;;5054877;28;20021;-65
2023/12/30 02:10:41;;;;;;;60.88;35.55;;;8.70;76.70;;;;;;5054877;28;20033;-65
2023/12/30 02:13:08;;;;;;;52.17;30.48;;;8.70;76.50;;;;;;5054756;28;20021;-64
2023/12/30 02:15:35;;;;;;;54.47;30.17;;;8.60;76.40;;;;;;5054750;28;20028;-64
2023/12/30 02:18:02;;;;;;;61.60;34.08;;;8.60;76.50;;;;;;5054753;28;20445;-65
2023/12/30 02:20:28;;;;;;;60.40;33.58;;;8.50;76.40;;;;;;5055297;28;20365;-65
2023/12/30 02:22:54;;;;;;;60.65;33.33;;;8.50;76.60;;;;;;5054678;28;20044;-65
2023/12/30 02:25:20;;;;;;;58.50;33.63;;;8.40;76.60;;;;;;5054745;28;20036;-65
2023/12/30 02:27:46;;;;;;;60.38;34.03;;;8.40;76.70;;;;;;5054681;28;20428;-64
2023/12/30 02:30:13;;;;;;;50.10;30.77;;;8.40;76.40;;;;;;5057767;28;20117;-64
2023/12/30 02:32:40;;;;;;;52.85;29.67;;;8.30;76.50;;;;;;5058362;28;20035;-64
2023/12/30 02:35:07;;;;;;;52.85;31.77;;;8.30;76.70;;;;;;5058440;28;20028;-65
2023/12/30 02:37:32;;;;;;;54.75;31.88;;;8.30;76.60;;;;;;5058262;28;20112;-64
2023/12/30 02:39:59;;;;;;;53.75;31.10;;;8.30;76.50;;;;;;5058352;28;20108;-65
2023/12/30 02:42:25;;;;;;;54.65;29.95;;;8.20;76.60;;;;;;5058096;28;20045;-64
2023/12/30 02:44:52;;;;;;;57.55;31.55;;;8.20;76.50;;;;;;5058756;28;20501;-65
2023/12/30 02:47:18;;;;;;;54.67;31.48;;;8.20;76.50;;;;;;5058163;28;20029;-64
2023/12/30 02:49:45;;;;;;;55.50;33.95;;;8.10;76.60;;;;;;5058439;28;20029;-65
2023/12/30 02:52:11;;;;;;;53.40;32.65;;;8.10;76.60;;;;;;5057958;28;20451;-64
2023/12/30 02:54:37;;;;;;;57.00;32.42;;;8.00;76.30;;;;;;5058574;28;20036;-64
2023/12/30 02:57:04;;;;;;;52.25;31.73;;;7.90;76.40;;;;;;5058022;28;20033;-64
2023/12/30 02:59:30;;;;;;;64.80;37.13;;;7.90;76.40;;;;;;5058254;28;20021;-65
2023/12/30 03:01:56;;;;;;;52.63;32.63;;;7.80;76.50;;;;;;5058258;28;20033;-64
2023/12/30 03:04:22;;;;;;;56.50;32.20;;;7.70;76.50;;;;;;5058423;28;20025;-64
2023/12/30 03:06:49;;;;;;;57.13;33.10;;;7.60;76.70;;;;;;5057750;28;20477;-65
2023/12/30 03:09:14;;;;;;;58.72;31.38;;;7.60;76.90;;;;;;5057793;28;20445;-64
2023/12/30 03:11:42;;;;;;;51.45;30.65;;;7.50;76.90;;;;;;5057607;28;20025;-64
2023/12/30 03:14:08;;;;;;;59.10;31.48;;;7.50;76.90;;;;;;5057622;28;20497;-64
2023/12/30 03:16:35;;;;;;;55.13;31.20;;;7.50;76.90;;;;;;5057615;28;20401;-64
2023/12/30 03:19:01;;;;;;;54.17;30.50;;;7.50;76.80;;;;;;5057615;28;20021;-64
2023/12/30 03:21:27;;;;;;;56.30;30.45;;;7.50;76.70;;;;;;5057482;28;20025;-64
2023/12/30 03:23:52;;;;;;;52.03;31.17;;;7.50;76.80;;;;;;5057505;28;20020;-64
2023/12/30 03:26:18;;;;;;;58.55;33.95;;;7.50;76.60;;;;;;5057994;28;20373;-64
2023/12/30 03:28:44;;;;;;;56.65;32.17;;;7.50;76.60;;;;;;5057919;28;20055;-65
2023/12/30 03:31:24;;;;;;;63.30;36.42;;;7.40;76.70;;;;;;5057273;28;20060;-64
2023/12/30 03:33:50;;;;;;;53.03;30.77;;;7.40;76.70;;;;;;5057236;28;20025;-64
2023/12/30 03:36:16;;;;;;;57.03;35.25;;;7.40;76.70;;;;;;5357333;23;20480;-65
2023/12/30 03:38:42;;;;;;;48.33;29.92;;;7.30;76.60;;;;;;5097791;28;20024;-65
2023/12/30 03:41:09;;;;;;;55.38;32.10;;;7.30;76.70;;;;;;5096217;28;20358;-65
2023/12/30 03:43:36;;;;;;;51.63;32.90;;;7.30;76.60;;;;;;5097348;28;20032;-65
2023/12/30 03:46:02;;;;;;;54.75;31.85;;;7.20;76.40;;;;;;5087225;28;20029;-64
2023/12/30 03:48:27;;;;;;;51.83;30.98;;;7.10;76.40;;;;;;5077324;28;20066;-64
2023/12/30 03:50:53;;;;;;;57.63;32.97;;;7.10;76.60;;;;;;5077307;28;20032;-64
2023/12/30 03:53:19;;;;;;;57.05;32.63;;;7.00;76.70;;;;;;5076919;28;20024;-64
2023/12/30 03:55:45;;;;;;;63.72;34.40;;;7.00;76.80;;;;;;5077120;28;20098;-64
2023/12/30 03:58:11;;;;;;;55.63;33.80;;;7.00;76.70;;;;;;5076883;28;20027;-64
2023/12/30 04:00:37;;;;;;;59.88;34.03;;;6.90;76.70;;;;;;5077115;28;20175;-64
2023/12/30 04:03:03;;;;;;;58.45;34.03;;;6.90;76.80;;;;;;5077328;28;20154;-64
2023/12/30 04:05:29;;;;;;;56.25;31.08;;;6.90;76.80;;;;;;5076863;28;20062;-64
2023/12/30 04:07:55;;;;;;;57.50;31.67;;;6.90;76.80;;;;;;5077203;28;20330;-64
2023/12/30 04:10:21;;;;;;;54.45;28.88;;;6.90;77.10;;;;;;5076640;28;20078;-64
2023/12/30 04:12:47;;;;;;;57.10;31.27;;;6.90;77.30;;;;;;5076762;28;20021;-65
2023/12/30 04:15:13;;;;;;;56.00;30.80;;;6.90;77.30;;;;;;5076508;28;20112;-64
2023/12/30 04:17:39;;;;;;;57.28;30.75;;;6.90;77.20;;;;;;5077005;28;20066;-64
2023/12/30 04:20:06;;;;;;;50.15;28.10;;;6.90;77.20;;;;;;5076423;28;20028;-64
2023/12/30 04:22:32;;;;;;;51.20;28.75;;;7.00;77.20;;;;;;5076382;28;20048;-65
2023/12/30 04:25:00;;;;;;;54.35;29.10;;;7.00;77.10;;;;;;5076507;28;20020;-65
2023/12/30 04:27:26;;;;;;;46.58;28.63;;;7.00;76.90;;;;;;5076295;28;20024;-64
2023/12/30 04:29:52;;;;;;;45.28;25.88;;;7.00;76.90;;;;;;5076234;28;20039;-65
2023/12/30 04:32:21;;;;;;;51.80;27.75;;;7.00;76.90;;;;;;5076130;28;20349;-64
2023/12/30 04:34:48;;;;;;;44.75;26.60;;;7.00;76.80;;;;;;5076592;28;20031;-64
2023/12/30 04:37:14;;;;;;;44.45;25.58;;;7.10;77.00;;;;;;5075929;28;20052;-65
2023/12/30 04:39:40;;;;;;;48.97;26.77;;;7.10;77.10;;;;;;5076311;28;20021;-64
2023/12/30 04:42:06;;;;;;;42.53;24.55;;;7.10;77.00;;;;;;5076257;28;20024;-64
2023/12/30 04:44:32;;;;;;;43.58;24.20;;;7.20;76.90;;;;;;5075991;28;20441;-65
2023/12/30 04:46:58;;;;;;;47.70;25.77;;;7.20;76.90;;;;;;5076403;28;20021;-64
2023/12/30 04:49:25;;;;;;;49.58;26.65;;;7.20;76.80;;;;;;5075881;28;20441;-64
2023/12/30 04:51:51;;;;;;;48.33;26.38;;;7.20;76.60;;;;;;5075398;28;20020;-64
2023/12/30 04:54:17;;;;;;;48.78;25.73;;;7.20;76.40;;;;;;5075757;28;20078;-65
2023/12/30 04:56:43;;;;;;;46.08;24.40;;;7.20;76.30;;;;;;5075957;28;20421;-64
2023/12/30 04:59:09;;;;;;;45.15;25.40;;;7.10;76.30;;;;;;5075991;28;20048;-64
2023/12/30 05:01:36;;;;;;;45.08;23.45;;;7.10;76.30;;;;;;5075932;28;20032;-64
2023/12/30 05:04:03;;;;;;;41.45;24.67;;;7.00;76.10;;;;;;5075896;28;20112;-64
2023/12/30 05:06:29;;;;;;;42.40;24.98;;;6.90;76.10;;;;;;5075815;28;20103;-65
2023/12/30 05:08:58;;;;;;;41.50;24.63;;;6.90;76.00;;;;;;5075822;28;20048;-65
2023/12/30 05:11:24;;;;;;;38.88;23.55;;;6.90;76.20;;;;;;5075728;28;20081;-65
2023/12/30 05:13:50;;;;;;;40.67;23.35;;;6.80;76.40;;;;;;5076264;28;20031;-65
2023/12/30 05:16:17;;;;;;;41.88;23.77;;;6.80;76.20;;;;;;5075675;28;20361;-65
2023/12/30 05:18:43;;;;;;;45.15;25.67;;;6.70;76.30;;;;;;5075478;28;20052;-65
2023/12/30 05:21:15;;;;;;;48.30;26.77;;;6.70;76.60;;;;;;5075423;28;20048;-65
2023/12/30 05:23:42;;;;;;;41.03;22.95;;;6.60;76.30;;;;;;5075644;28;20099;-65
2023/12/30 05:26:09;;;;;;;35.95;20.42;;;6.60;76.30;;;;;;5075288;28;20028;-65
2023/12/30 05:28:35;;;;;;;37.10;20.23;;;6.60;76.50;;;;;;5075395;28;20050;-65
2023/12/30 05:31:01;;;;;;;32.20;18.15;;;6.60;76.50;;;;;;5075621;28;20024;-65
2023/12/30 05:33:27;;;;;;;27.83;15.68;;;6.60;76.60;;;;;;5075460;28;20111;-65
2023/12/30 05:35:53;;;;;;;28.08;15.73;;;6.60;76.60;;;;;;5075214;28;20099;-65
2023/12/30 05:38:20;;;;;;;25.05;14.38;;;6.70;76.60;;;;;;5075800;28;20033;-65
2023/12/30 05:40:46;;;;;;;25.92;13.68;;;6.80;76.60;;;;;;5075198;28;20108;-65
2023/12/30 05:43:12;;;;;;;28.60;15.32;;;6.90;76.60;;;;;;5075492;28;20028;-65
2023/12/30 05:45:40;;;;;;;31.08;16.10;;;6.90;76.40;;;;;;5075177;28;20086;-65
2023/12/30 05:48:06;;;;;;;28.88;16.13;;;6.90;76.30;;;;;;5075394;28;20056;-65
2023/12/30 05:50:32;;;;;;;28.83;16.58;;;6.90;76.20;;;;;;5057927;28;20029;-65
2023/12/30 05:52:59;;;;;;;34.13;19.35;;;6.90;76.10;;;;;;5075592;28;20067;-65
2023/12/30 05:55:25;;;;;;;31.67;17.08;;;6.90;75.70;;;;;;5075080;28;20027;-65
2023/12/30 05:57:52;;;;;;;31.48;16.92;;;6.80;75.70;;;;;;5075591;28;20025;-65
2023/12/30 06:00:19;;;;;;;35.00;20.08;;;6.80;75.70;;;;;;5075589;28;20055;-65
2023/12/30 06:02:45;;;;;;;44.33;23.52;;;6.70;75.60;;;;;;5074978;28;20029;-65
2023/12/30 06:05:11;;;;;;;49.17;26.70;;;6.80;75.60;;;;;;5078306;28;20345;-65
2023/12/30 06:07:40;;;;;;;45.28;23.63;;;6.70;75.60;;;;;;5079019;28;20024;-65
2023/12/30 06:10:07;;;;;;;41.40;23.77;;;6.70;75.40;;;;;;5061297;28;20396;-65
2023/12/30 06:12:33;;;;;;;39.75;21.80;;;6.60;75.70;;;;;;5078788;28;20130;-65
2023/12/30 06:15:00;;;;;;;45.25;24.23;;;6.60;75.70;;;;;;5079325;28;20472;-65
2023/12/30 06:17:26;;;;;;;46.83;25.75;;;6.50;75.70;;;;;;5079357;28;20021;-65
2023/12/30 06:19:52;;;;;;;41.97;23.63;;;6.50;75.70;;;;;;5078788;28;20020;-65
2023/12/30 06:22:19;;;;;;;45.88;26.38;;;6.50;75.50;;;;;;5079259;28;20052;-65
2023/12/30 06:24:45;;;;;;;44.00;25.75;;;6.40;75.40;;;;;;5079238;28;20090;-65
2023/12/30 06:27:11;;;;;;;42.60;23.20;;;6.40;75.70;;;;;;5078752;28;20032;-65
2023/12/30 06:29:37;;;;;;;40.42;22.75;;;6.30;75.70;;;;;;5079106;28;20342;-65
2023/12/30 06:32:03;;;;;;;41.10;22.50;;;6.30;76.00;;;;;;5078463;28;20078;-65
2023/12/30 06:34:31;;;;;;;40.83;23.02;;;6.30;76.00;;;;;;5078966;28;20345;-65
2023/12/30 06:36:57;;;;;;;43.95;23.90;;;6.30;76.00;;;;;;5078145;28;20139;-65
2023/12/30 06:39:23;;;;;;;41.35;23.17;;;6.30;76.00;;;;;;5078932;28;20459;-65
2023/12/30 06:41:49;;;;;;;45.08;23.75;;;6.30;75.90;;;;;;5078355;28;20104;-65
2023/12/30 06:44:15;;;;;;;45.38;24.15;;;6.20;75.80;;;;;;5078282;28;20103;-65
2023/12/30 06:46:41;;;;;;;43.53;24.77;;;6.20;76.00;;;;;;5078725;28;20048;-65
2023/12/30 06:49:07;;;;;;;57.38;30.60;;;6.20;76.10;;;;;;5078751;28;20039;-65
2023/12/30 06:51:33;;;;;;;53.38;27.17;;;6.20;75.90;;;;;;5347463;23;20056;-64
2023/12/30 06:53:58;;;;;;;50.75;26.63;;;6.20;76.20;;;;;;5058671;28;20055;-63
2023/12/30 06:56:24;;;;;;;52.03;27.75;;;6.20;76.10;;;;;;5058586;28;20341;-64
2023/12/30 06:58:51;;;;;;;49.25;25.45;;;6.20;76.00;;;;;;5058616;28;20021;-64
2023/12/30 07:01:21;;;;;;;49.17;26.48;;;6.20;75.90;;;;;;5047649;28;20092;-65
2023/12/30 07:03:48;;;;;;;47.80;26.25;;;6.10;75.90;;;;;;5038214;28;20357;-65
2023/12/30 07:06:14;;;;;;;42.42;23.15;;;6.10;75.90;;;;;;5037873;28;20040;-65
2023/12/30 07:08:40;;;;;;;44.75;24.73;;;6.10;76.10;;;;;;5038242;28;20022;-65
2023/12/30 07:11:06;;;;;;;48.42;26.27;;;6.00;76.10;;;;;;5037825;28;20033;-65
2023/12/30 07:13:33;;;;;;;51.55;26.38;;;6.00;76.00;;;;;;5038037;28;20346;-64
2023/12/30 07:15:59;;;;;;;46.65;25.13;;;6.00;76.20;;;;;;5037432;28;20021;-64
2023/12/30 07:18:25;;;;;;;35.65;19.00;;;6.00;76.10;;;;;;5037743;28;20031;-65
2023/12/30 07:20:51;;;;;;;33.63;18.77;;;6.00;76.10;;;;;;5037649;28;20023;-64
2023/12/30 07:23:17;;;;;;;33.80;18.45;;;6.00;76.30;;;;;;5037928;28;20068;-64
2023/12/30 07:25:43;;;;;;;36.45;18.30;;;6.10;76.50;;;;;;5037851;28;20033;-64
2023/12/30 07:28:09;;;;;;;30.98;17.70;;;6.10;76.40;;;;;;5036560;28;20467;-64
2023/12/30 07:30:35;;;;;;;31.50;17.45;;;6.10;76.50;;;;;;5038016;28;20033;-64
2023/12/30 07:33:02;;;;;;;29.40;16.73;;;6.20;76.50;;;;;;5037632;28;20028;-64
2023/12/30 07:35:28;;;;;;;30.83;16.65;;;6.10;76.30;;;;;;5037611;28;20048;-64
2023/12/30 07:37:54;;;;;;;38.97;23.23;;;6.20;76.60;;;;;;5037624;28;20354;-64
2023/12/30 07:40:21;;;;;;;47.60;24.60;;;6.20;74.60;;;;;;5037238;28;20103;-64
2023/12/30 07:42:47;;;;;;;58.55;29.20;;;6.10;75.40;;;;;;5037182;28;20025;-64
2023/12/30 07:45:13;;;;;;;50.67;27.40;;;6.10;75.90;;;;;;5037500;28;20125;-65
2023/12/30 07:47:39;;;;;;;51.10;25.92;;;6.10;76.10;;;;;;5037144;28;20076;-63
2023/12/30 07:50:05;;;;;;;49.75;25.73;;;6.20;76.30;;;;;;5037066;28;20080;-64
2023/12/30 07:52:32;;;;;;;53.92;28.70;;;6.20;76.40;;;;;;5036846;28;20125;-64
2023/12/30 07:54:58;;;;;;;56.72;30.25;;;6.20;76.50;;;;;;5037531;28;20028;-64
2023/12/30 07:57:24;;;;;;;54.83;29.95;;;6.20;76.50;;;;;;5036949;28;20021;-64
2023/12/30 07:59:50;;;;;;;47.70;26.63;;;6.30;76.60;;;;;;5036943;28;20031;-65
2023/12/30 08:02:16;;;;;;;57.58;30.02;;;6.30;76.60;;;;;;5036782;28;20067;-64
2023/12/30 08:04:45;;;;;;;50.42;27.30;;;6.40;76.80;;;;;;5036733;28;20036;-65
2023/12/30 08:07:11;;;;;;;52.17;28.90;;;6.40;76.70;;;;;;5037277;28;20458;-64
2023/12/30 08:09:37;;;;;;;66.32;35.22;;;6.40;76.80;;;;;;5036625;28;20048;-64
2023/12/30 08:12:04;;;;;;;56.30;30.33;;;6.50;76.80;;;;;;5036730;28;20026;-64
2023/12/30 08:14:30;;;;;;;58.97;30.17;;;6.60;76.80;;;;;;5036607;28;20067;-64
2023/12/30 08:16:58;;;;;;;56.20;30.92;;;6.70;76.80;;;;;;5036557;28;20049;-64
2023/12/30 08:19:24;;;;;;;52.75;28.10;;;6.80;76.90;;;;;;5035506;28;20018;-63
2023/12/30 08:21:50;;;;;;;65.55;32.10;;;6.80;76.90;;;;;;5036808;28;20320;-64
2023/12/30 08:24:19;;;;;;;91.22;41.50;;;6.90;77.10;;;;;;5036951;28;20423;-64
2023/12/30 08:26:45;;;;;;;78.80;37.35;;;7.00;77.10;;;;;;5035760;28;20082;-64
2023/12/30 08:29:13;;;;;;;58.53;29.98;;;7.10;77.00;;;;;;5036378;28;20112;-64
2023/12/30 08:31:45;;;;;;;64.43;30.38;;;7.20;77.00;;;;;;5036069;28;20025;-64
2023/12/30 08:34:15;;;;;;;58.25;30.77;;;7.40;77.00;;;;;;5036190;28;20041;-64
2023/12/30 08:36:42;;;;;;;56.95;29.15;;;7.50;76.80;;;;;;5036742;28;20026;-64
2023/12/30 08:39:08;;;;;;;52.85;28.73;;;7.60;76.70;;;;;;5036189;28;20017;-64
2023/12/30 08:41:35;;;;;;;45.92;26.60;;;7.80;76.60;;;;;;5036041;28;20028;-64
2023/12/30 08:44:02;;;;;;;45.30;25.13;;;7.90;76.60;;;;;;5036628;28;20025;-65
2023/12/30 08:46:28;;;;;;;36.15;21.60;;;8.10;76.30;;;;;;5036326;28;20096;-65
2023/12/30 08:48:55;;;;;;;38.63;22.55;;;8.20;76.10;;;;;;5034888;28;20036;-65
2023/12/30 08:51:22;;;;;;;36.75;21.13;;;8.30;75.90;;;;;;5035974;28;20365;-64
2023/12/30 08:53:48;;;;;;;33.38;19.15;;;8.30;75.90;;;;;;5035814;28;20033;-64
2023/12/30 08:56:20;;;;;;;27.30;16.48;;;8.50;75.80;;;;;;5035897;28;20102;-62
2023/12/30 08:58:47;;;;;;;29.58;15.48;;;8.60;75.50;;;;;;5035788;28;20430;-64
2023/12/30 09:01:13;;;;;;;27.90;16.33;;;8.70;75.30;;;;;;5034633;28;20029;-65
2023/12/30 09:03:39;;;;;;;30.83;15.90;;;8.90;75.10;;;;;;5036253;28;20030;-65
2023/12/30 09:06:06;;;;;;;33.00;16.85;;;8.90;75.00;;;;;;5035915;28;20036;-63
2023/12/30 09:08:32;;;;;;;41.25;19.95;;;9.00;74.80;;;;;;5035676;28;20036;-65
2023/12/30 09:10:59;;;;;;;34.75;18.35;;;9.10;74.70;;;;;;5035569;28;20032;-65
2023/12/30 09:13:30;;;;;;;34.08;17.83;;;9.20;74.80;;;;;;5035585;28;20076;-65
2023/12/30 09:15:57;;;;;;;28.45;16.60;;;9.30;74.60;;;;;;5035663;28;20025;-64
2023/12/30 09:18:23;;;;;;;46.03;21.80;;;9.40;74.50;;;;;;5369565;23;20052;-71
2023/12/30 09:20:49;;;;;;;56.47;24.58;;;9.40;74.60;;;;;;5075844;28;20036;-74
2023/12/30 09:23:17;;;;;;;45.75;22.65;;;9.60;74.40;;;;;;5075357;28;20025;-70
2023/12/30 09:25:45;;;;;;;40.10;21.52;;;9.60;74.20;;;;;;5075293;28;20078;-70
2023/12/30 09:28:11;;;;;;;36.70;20.25;;;9.70;74.30;;;;;;5085840;28;20075;-70
2023/12/30 09:30:38;;;;;;;35.28;18.73;;;9.90;74.10;;;;;;5095781;28;20356;-70
2023/12/30 09:33:05;;;;;;;37.22;19.67;;;9.90;74.00;;;;;;5095360;28;20351;-70
2023/12/30 09:35:32;;;;;;;38.58;21.45;;;10.10;73.80;;;;;;5095384;28;20105;-70
2023/12/30 09:37:59;;;;;;;43.17;23.10;;;10.10;73.60;;;;;;5095206;28;20027;-71
2023/12/30 09:40:27;;;;;;;40.63;22.40;;;10.20;72.70;;;;;;5095664;28;20048;-71
2023/12/30 09:42:55;;;;;;;47.92;23.40;;;10.20;73.00;;;;;;5095296;28;20039;-71
2023/12/30 09:45:23;;;;;;;38.60;20.42;;;10.20;72.60;;;;;;5077408;28;20024;-71
2023/12/30 09:47:52;;;;;;;39.80;22.10;;;10.20;72.50;;;;;;5095360;28;20118;-71
2023/12/30 09:50:19;;;;;;;45.85;23.88;;;10.20;72.90;;;;;;5095248;28;20024;-73
2023/12/30 09:52:46;;;;;;;36.10;21.08;;;10.20;72.70;;;;;;5095132;28;20113;-73
2023/12/30 09:55:13;;;;;;;35.92;17.70;;;10.20;72.90;;;;;;5095172;28;20401;-73
2023/12/30 09:57:40;;;;;;;37.28;19.65;;;10.20;72.90;;;;;;5095018;28;20032;-73
2023/12/30 10:00:08;;;;;;;38.95;19.30;;;10.30;73.00;;;;;;5095728;28;20020;-73
2023/12/30 10:02:37;;;;;;;36.45;19.45;;;10.30;72.80;;;;;;5094935;28;20039;-73
2023/12/30 10:05:03;;;;;;;33.88;18.60;;;10.40;72.90;;;;;;5379090;23;20325;-70
2023/12/30 10:07:33;;;;;;;31.85;18.48;;;10.40;72.80;;;;;;5054853;28;20076;-72
2023/12/30 10:10:01;;;;;;;36.47;20.55;;;10.50;73.00;;;;;;5054611;28;20068;-71
2023/12/30 10:12:28;;;;;;;35.15;20.27;;;10.50;72.90;;;;;;5054731;28;20395;-72
2023/12/30 10:14:54;;;;;;;41.30;21.73;;;10.60;72.70;;;;;;5055275;28;20040;-71
2023/12/30 10:17:21;;;;;;;40.90;21.02;;;10.70;72.50;;;;;;5055848;28;20025;-73
2023/12/30 10:19:49;;;;;;;35.53;20.23;;;10.80;72.50;;;;;;5054778;28;20060;-72
2023/12/30 10:22:16;;;;;;;38.13;21.00;;;10.80;72.30;;;;;;5054969;28;20020;-72
2023/12/30 10:24:42;;;;;;;42.35;22.95;;;10.90;72.10;;;;;;5055157;28;20040;-71
2023/12/30 10:27:10;;;;;;;36.00;19.30;;;10.90;71.70;;;;;;5054674;28;20110;-72
2023/12/30 10:29:38;;;;;;;40.45;21.95;;;10.90;71.60;;;;;;5054672;28;20029;-72
2023/12/30 10:32:08;;;;;;;35.03;19.42;;;11.00;71.20;;;;;;5037147;28;20045;-71
2023/12/30 10:34:39;;;;;;;35.97;18.77;;;11.10;71.10;;;;;;5054867;28;20174;-71
2023/12/30 10:37:08;;;;;;;34.33;18.85;;;11.10;71.40;;;;;;5037079;28;20025;-71
2023/12/30 10:39:37;;;;;;;34.53;20.17;;;11.20;71.40;;;;;;5055094;28;20029;-71
2023/12/30 10:42:04;;;;;;;32.40;18.90;;;11.30;71.20;;;;;;5037065;28;20627;-72
2023/12/30 10:44:31;;;;;;;29.38;16.38;;;11.40;70.50;;;;;;5055029;28;20025;-72
2023/12/30 10:47:00;;;;;;;33.08;18.83;;;11.40;70.30;;;;;;5054574;28;20036;-72
2023/12/30 10:49:26;;;;;;;32.30;18.33;;;11.50;70.00;;;;;;5037089;28;20116;-71
2023/12/30 10:51:54;;;;;;;32.25;18.42;;;11.60;70.20;;;;;;5057963;28;20025;-72
2023/12/30 10:54:31;;;;;;;26.40;16.05;;;11.70;69.80;;;;;;5040519;28;20021;-72
2023/12/30 10:57:03;;;;;;;31.95;18.75;;;11.70;69.30;;;;;;5058578;28;20027;-71
2023/12/30 10:59:30;;;;;;;31.20;17.30;;;11.80;68.90;;;;;;5058503;28;20429;-73
2023/12/30 11:01:56;;;;;;;27.80;16.65;;;11.90;69.00;;;;;;5058231;28;20491;-72
2023/12/30 11:04:22;;;;;;;34.47;17.05;;;11.90;68.20;;;;;;5058105;28;20037;-72
2023/12/30 11:06:53;;;;;;;33.40;19.30;;;12.00;68.00;;;;;;5057531;28;20061;-73
2023/12/30 11:09:29;;;;;;;30.55;17.05;;;12.00;67.60;;;;;;5058102;28;20037;-72
2023/12/30 11:12:01;;;;;;;34.45;17.98;;;12.10;67.60;;;;;;5057608;28;20024;-72
2023/12/30 11:14:27;;;;;;;33.22;18.10;;;12.10;66.60;;;;;;5040095;28;20025;-72
2023/12/30 11:16:57;;;;;;;33.60;18.02;;;12.10;65.60;;;;;;5057995;28;20021;-71
2023/12/30 11:19:28;;;;;;;37.75;18.63;;;12.10;65.30;;;;;;5057513;28;20052;-72
2023/12/30 11:21:56;;;;;;;29.33;16.95;;;12.20;65.80;;;;;;5057724;28;20036;-72
2023/12/30 11:24:22;;;;;;;32.60;17.45;;;12.30;66.20;;;;;;5057645;28;20393;-73
2023/12/30 11:26:53;;;;;;;28.80;16.38;;;12.40;66.40;;;;;;5039713;28;20029;-71
2023/12/30 11:29:29;;;;;;;31.02;17.05;;;12.40;66.60;;;;;;5058077;28;20037;-72
2023/12/30 11:31:58;;;;;;;32.72;16.98;;;12.40;65.70;;;;;;5057696;28;20025;-72
2023/12/30 11:34:26;;;;;;;30.48;15.88;;;12.40;65.40;;;;;;5345943;22;20049;-72
2023/12/30 11:36:58;;;;;;;29.63;16.98;;;12.50;65.40;;;;;;5037825;28;20036;-72
2023/12/30 11:42:01;;;;;;;33.25;18.60;;;12.60;65.50;;;;;;5328671;23;20491;-70
2023/12/30 11:44:30;;;;;;;29.38;16.35;;;12.60;63.60;;;;;;5059494;28;20032;-70
2023/12/30 11:46:56;;;;;;;30.25;16.48;;;12.60;64.50;;;;;;5077369;28;20024;-70
2023/12/30 11:49:26;;;;;;;34.47;17.48;;;12.60;63.90;;;;;;5077317;28;20016;-69
2023/12/30 11:52:08;;;;;;;34.15;18.10;;;12.80;64.60;;;;;;5064230;28;20331;-70
2023/12/30 11:54:35;;;;;;;33.95;18.50;;;12.80;64.50;;;;;;5057535;28;20080;-70
2023/12/30 11:57:04;;;;;;;38.03;19.90;;;12.80;64.00;;;;;;5057079;28;20032;-70
2023/12/30 11:59:33;;;;;;;32.97;18.60;;;12.90;63.10;;;;;;5056829;28;20163;-70
2023/12/30 12:02:13;;;;;;;36.28;19.08;;;12.90;63.90;;;;;;5055729;28;20025;-70
2023/12/30 12:04:42;;;;;;;38.28;19.75;;;12.90;64.50;;;;;;5057257;28;20021;-70
2023/12/30 12:07:10;;;;;;;35.00;18.95;;;12.90;64.30;;;;;;5056640;28;20313;-70
2023/12/30 12:09:40;;;;;;;38.90;19.67;;;13.00;64.70;;;;;;5057109;28;20421;-70
2023/12/30 12:12:08;;;;;;;33.55;18.67;;;13.00;65.00;;;;;;5377580;23;20052;-70
2023/12/30 12:14:34;;;;;;;38.83;20.67;;;13.10;64.80;;;;;;5076456;28;20016;-70
2023/12/30 12:17:05;;;;;;;31.40;17.73;;;13.10;64.30;;;;;;5076454;28;20031;-70
2023/12/30 12:19:32;;;;;;;35.17;19.90;;;13.10;64.80;;;;;;5076413;28;20066;-70
2023/12/30 12:22:02;;;;;;;35.00;18.17;;;13.10;64.50;;;;;;5076423;28;20107;-70
2023/12/30 12:24:32;;;;;;;34.72;19.77;;;13.20;64.90;;;;;;5076289;28;20035;-70
2023/12/30 12:27:00;;;;;;;39.63;21.75;;;13.20;64.40;;;;;;5058607;28;20056;-70
2023/12/30 12:29:26;;;;;;;37.50;20.80;;;13.20;64.10;;;;;;5076201;28;20012;-70
2023/12/30 12:31:53;;;;;;;36.50;19.67;;;13.20;63.40;;;;;;5076010;28;20444;-70
2023/12/30 12:34:25;;;;;;;35.88;19.95;;;13.20;64.00;;;;;;5076684;28;20020;-70
2023/12/30 12:36:52;;;;;;;35.60;19.95;;;13.20;64.00;;;;;;5076093;28;20108;-70